sensor_id;sensor_type;location;lat;lon;timestamp;temperature;humidity
78788;DHT22;68131;52.508;5.502;2023-07-09T00:02:14;24.40;64.20
78788;DHT22;68131;52.508;5.502;2023-07-09T00:04:44;24.40;64.20
78788;DHT22;68131;52.508;5.502;2023-07-09T00:07:18;24.30;64.30
78788;DHT22;68131;52.508;5.502;2023-07-09T00:09:50;24.30;64.40
78788;DHT22;68131;52.508;5.502;2023-07-09T00:12:20;24.20;64.60
78788;DHT22;68131;52.508;5.502;2023-07-09T00:14:52;24.10;64.80
78788;DHT22;68131;52.508;5.502;2023-07-09T00:17:25;24.10;64.90
78788;DHT22;68131;52.508;5.502;2023-07-09T00:19:54;24.00;64.90
78788;DHT22;68131;52.508;5.502;2023-07-09T00:22:26;24.00;64.90
78788;DHT22;68131;52.508;5.502;2023-07-09T00:25:01;24.00;64.90
78788;DHT22;68131;52.508;5.502;2023-07-09T00:27:35;24.00;65.00
78788;DHT22;68131;52.508;5.502;2023-07-09T00:30:09;24.00;65.00
78788;DHT22;68131;52.508;5.502;2023-07-09T00:32:42;24.00;65.00
78788;DHT22;68131;52.508;5.502;2023-07-09T00:35:12;24.10;65.00
78788;DHT22;68131;52.508;5.502;2023-07-09T00:37:45;24.10;65.00
78788;DHT22;68131;52.508;5.502;2023-07-09T00:40:19;24.00;65.10
78788;DHT22;68131;52.508;5.502;2023-07-09T00:42:53;24.00;65.40
78788;DHT22;68131;52.508;5.502;2023-07-09T00:45:24;23.90;65.50
78788;DHT22;68131;52.508;5.502;2023-07-09T00:47:56;23.90;65.50
78788;DHT22;68131;52.508;5.502;2023-07-09T00:50:39;23.90;65.60
78788;DHT22;68131;52.508;5.502;2023-07-09T00:53:15;23.80;65.70
78788;DHT22;68131;52.508;5.502;2023-07-09T00:55:52;23.80;65.70
78788;DHT22;68131;52.508;5.502;2023-07-09T00:58:24;23.80;65.70
78788;DHT22;68131;52.508;5.502;2023-07-09T01:00:58;23.80;65.60
78788;DHT22;68131;52.508;5.502;2023-07-09T01:03:34;23.80;65.70
78788;DHT22;68131;52.508;5.502;2023-07-09T01:06:04;23.80;65.80
78788;DHT22;68131;52.508;5.502;2023-07-09T01:08:35;23.70;65.80
78788;DHT22;68131;52.508;5.502;2023-07-09T01:11:17;23.70;65.80
78788;DHT22;68131;52.508;5.502;2023-07-09T01:13:48;23.70;65.80
78788;DHT22;68131;52.508;5.502;2023-07-09T01:16:17;23.70;65.70
78788;DHT22;68131;52.508;5.502;2023-07-09T01:18:48;23.70;65.70
78788;DHT22;68131;52.508;5.502;2023-07-09T01:21:20;23.70;65.70
78788;DHT22;68131;52.508;5.502;2023-07-09T01:23:50;23.70;65.70
78788;DHT22;68131;52.508;5.502;2023-07-09T01:26:23;23.70;65.70
78788;DHT22;68131;52.508;5.502;2023-07-09T01:28:53;23.70;65.80
78788;DHT22;68131;52.508;5.502;2023-07-09T01:31:26;23.70;65.90
78788;DHT22;68131;52.508;5.502;2023-07-09T01:33:56;23.60;66.10
78788;DHT22;68131;52.508;5.502;2023-07-09T01:36:27;23.60;66.10
78788;DHT22;68131;52.508;5.502;2023-07-09T01:38:57;23.60;66.10
78788;DHT22;68131;52.508;5.502;2023-07-09T01:41:26;23.60;66.00
78788;DHT22;68131;52.508;5.502;2023-07-09T01:43:56;23.60;66.00
78788;DHT22;68131;52.508;5.502;2023-07-09T01:46:25;23.60;65.90
78788;DHT22;68131;52.508;5.502;2023-07-09T01:48:56;23.60;65.90
78788;DHT22;68131;52.508;5.502;2023-07-09T01:51:29;23.60;65.90
78788;DHT22;68131;52.508;5.502;2023-07-09T01:53:59;23.60;65.90
78788;DHT22;68131;52.508;5.502;2023-07-09T01:56:28;23.50;65.90
78788;DHT22;68131;52.508;5.502;2023-07-09T01:58:58;23.50;65.90
78788;DHT22;68131;52.508;5.502;2023-07-09T02:01:27;23.50;65.90
78788;DHT22;68131;52.508;5.502;2023-07-09T02:04:03;23.50;66.10
78788;DHT22;68131;52.508;5.502;2023-07-09T02:06:36;23.50;66.10
78788;DHT22;68131;52.508;5.502;2023-07-09T02:09:05;23.50;66.00
78788;DHT22;68131;52.508;5.502;2023-07-09T02:11:34;23.40;66.20
78788;DHT22;68131;52.508;5.502;2023-07-09T02:14:04;23.40;66.50
78788;DHT22;68131;52.508;5.502;2023-07-09T02:16:33;23.30;66.50
78788;DHT22;68131;52.508;5.502;2023-07-09T02:19:02;23.30;66.40
78788;DHT22;68131;52.508;5.502;2023-07-09T02:21:31;23.30;66.40
78788;DHT22;68131;52.508;5.502;2023-07-09T02:24:05;23.30;66.30
78788;DHT22;68131;52.508;5.502;2023-07-09T02:26:34;23.30;66.20
78788;DHT22;68131;52.508;5.502;2023-07-09T02:29:08;23.30;66.10
78788;DHT22;68131;52.508;5.502;2023-07-09T02:31:37;23.30;66.10
78788;DHT22;68131;52.508;5.502;2023-07-09T02:34:07;23.30;66.10
78788;DHT22;68131;52.508;5.502;2023-07-09T02:36:42;23.30;66.10
78788;DHT22;68131;52.508;5.502;2023-07-09T02:39:14;23.30;66.10
78788;DHT22;68131;52.508;5.502;2023-07-09T02:41:44;23.30;66.10
78788;DHT22;68131;52.508;5.502;2023-07-09T02:44:17;23.30;66.10
78788;DHT22;68131;52.508;5.502;2023-07-09T02:46:47;23.30;66.10
78788;DHT22;68131;52.508;5.502;2023-07-09T02:49:16;23.30;66.20
78788;DHT22;68131;52.508;5.502;2023-07-09T02:51:45;23.30;66.10
78788;DHT22;68131;52.508;5.502;2023-07-09T02:54:17;23.30;66.10
78788;DHT22;68131;52.508;5.502;2023-07-09T02:56:46;23.30;66.10
78788;DHT22;68131;52.508;5.502;2023-07-09T02:59:18;23.30;66.10
78788;DHT22;68131;52.508;5.502;2023-07-09T03:01:49;23.30;66.10
78788;DHT22;68131;52.508;5.502;2023-07-09T03:04:19;23.30;66.10
78788;DHT22;68131;52.508;5.502;2023-07-09T03:06:49;23.30;66.10
78788;DHT22;68131;52.508;5.502;2023-07-09T03:09:21;23.20;66.10
78788;DHT22;68131;52.508;5.502;2023-07-09T03:11:53;23.20;66.10
78788;DHT22;68131;52.508;5.502;2023-07-09T03:14:23;23.20;66.10
78788;DHT22;68131;52.508;5.502;2023-07-09T03:16:52;23.20;66.20
78788;DHT22;68131;52.508;5.502;2023-07-09T03:19:22;23.20;66.20
78788;DHT22;68131;52.508;5.502;2023-07-09T03:21:53;23.20;66.40
78788;DHT22;68131;52.508;5.502;2023-07-09T03:24:24;23.10;66.40
78788;DHT22;68131;52.508;5.502;2023-07-09T03:26:59;23.10;66.40
78788;DHT22;68131;52.508;5.502;2023-07-09T03:29:28;23.10;66.40
78788;DHT22;68131;52.508;5.502;2023-07-09T03:31:57;23.10;66.40
78788;DHT22;68131;52.508;5.502;2023-07-09T03:34:26;23.10;66.40
78788;DHT22;68131;52.508;5.502;2023-07-09T03:37:02;23.10;66.40
78788;DHT22;68131;52.508;5.502;2023-07-09T03:39:37;23.10;66.40
78788;DHT22;68131;52.508;5.502;2023-07-09T03:42:06;23.10;66.40
78788;DHT22;68131;52.508;5.502;2023-07-09T03:44:35;23.10;66.30
78788;DHT22;68131;52.508;5.502;2023-07-09T03:47:05;23.20;66.30
78788;DHT22;68131;52.508;5.502;2023-07-09T03:49:34;23.20;66.20
78788;DHT22;68131;52.508;5.502;2023-07-09T03:52:04;23.20;66.20
78788;DHT22;68131;52.508;5.502;2023-07-09T03:54:36;23.20;66.20
78788;DHT22;68131;52.508;5.502;2023-07-09T03:57:05;23.20;66.10
78788;DHT22;68131;52.508;5.502;2023-07-09T03:59:35;23.20;66.10
78788;DHT22;68131;52.508;5.502;2023-07-09T04:02:06;23.20;66.10
78788;DHT22;68131;52.508;5.502;2023-07-09T04:04:35;23.30;66.30
78788;DHT22;68131;52.508;5.502;2023-07-09T04:07:04;23.20;66.40
78788;DHT22;68131;52.508;5.502;2023-07-09T04:09:36;23.20;66.30
78788;DHT22;68131;52.508;5.502;2023-07-09T04:12:07;23.20;66.30
78788;DHT22;68131;52.508;5.502;2023-07-09T04:14:37;23.20;66.30
78788;DHT22;68131;52.508;5.502;2023-07-09T04:17:07;23.20;66.40
78788;DHT22;68131;52.508;5.502;2023-07-09T04:19:36;23.20;66.30
78788;DHT22;68131;52.508;5.502;2023-07-09T04:22:05;23.30;66.30
78788;DHT22;68131;52.508;5.502;2023-07-09T04:24:37;23.30;66.30
78788;DHT22;68131;52.508;5.502;2023-07-09T04:27:07;23.30;66.30
78788;DHT22;68131;52.508;5.502;2023-07-09T04:29:36;23.30;66.30
78788;DHT22;68131;52.508;5.502;2023-07-09T04:32:08;23.40;66.40
78788;DHT22;68131;52.508;5.502;2023-07-09T04:34:40;23.40;66.30
78788;DHT22;68131;52.508;5.502;2023-07-09T04:37:10;23.40;66.30
78788;DHT22;68131;52.508;5.502;2023-07-09T04:39:47;23.40;66.20
78788;DHT22;68131;52.508;5.502;2023-07-09T04:42:17;23.50;66.20
78788;DHT22;68131;52.508;5.502;2023-07-09T04:44:48;23.50;66.10
78788;DHT22;68131;52.508;5.502;2023-07-09T04:47:17;23.50;66.20
78788;DHT22;68131;52.508;5.502;2023-07-09T04:49:47;23.60;66.20
78788;DHT22;68131;52.508;5.502;2023-07-09T04:52:16;23.60;66.20
78788;DHT22;68131;52.508;5.502;2023-07-09T04:54:48;23.70;66.30
78788;DHT22;68131;52.508;5.502;2023-07-09T04:57:17;23.70;66.30
78788;DHT22;68131;52.508;5.502;2023-07-09T04:59:46;23.70;66.30
78788;DHT22;68131;52.508;5.502;2023-07-09T05:02:16;23.80;66.20
78788;DHT22;68131;52.508;5.502;2023-07-09T05:04:47;23.90;66.10
78788;DHT22;68131;52.508;5.502;2023-07-09T05:07:16;24.00;65.90
78788;DHT22;68131;52.508;5.502;2023-07-09T05:09:48;24.20;65.70
78788;DHT22;68131;52.508;5.502;2023-07-09T05:12:25;24.40;65.40
78788;DHT22;68131;52.508;5.502;2023-07-09T05:14:55;24.60;65.30
78788;DHT22;68131;52.508;5.502;2023-07-09T05:17:25;24.70;65.10
78788;DHT22;68131;52.508;5.502;2023-07-09T05:19:54;24.90;65.00
78788;DHT22;68131;52.508;5.502;2023-07-09T05:22:23;25.00;64.90
78788;DHT22;68131;52.508;5.502;2023-07-09T05:24:55;25.10;64.70
78788;DHT22;68131;52.508;5.502;2023-07-09T05:27:24;25.20;64.60
78788;DHT22;68131;52.508;5.502;2023-07-09T05:29:54;25.20;64.70
78788;DHT22;68131;52.508;5.502;2023-07-09T05:32:23;25.10;64.70
78788;DHT22;68131;52.508;5.502;2023-07-09T05:34:53;25.20;64.80
78788;DHT22;68131;52.508;5.502;2023-07-09T05:37:22;25.30;65.00
78788;DHT22;68131;52.508;5.502;2023-07-09T05:39:51;25.40;65.10
78788;DHT22;68131;52.508;5.502;2023-07-09T05:42:23;25.50;65.10
78788;DHT22;68131;52.508;5.502;2023-07-09T05:44:55;25.60;64.80
78788;DHT22;68131;52.508;5.502;2023-07-09T05:47:24;25.80;64.60
78788;DHT22;68131;52.508;5.502;2023-07-09T05:49:53;26.00;64.40
78788;DHT22;68131;52.508;5.502;2023-07-09T05:52:23;26.20;64.00
78788;DHT22;68131;52.508;5.502;2023-07-09T05:54:55;26.40;63.90
78788;DHT22;68131;52.508;5.502;2023-07-09T05:57:29;26.50;63.20
78788;DHT22;68131;52.508;5.502;2023-07-09T06:00:04;26.50;62.80
78788;DHT22;68131;52.508;5.502;2023-07-09T06:02:39;26.70;62.70
78788;DHT22;68131;52.508;5.502;2023-07-09T06:05:12;26.80;62.40
78788;DHT22;68131;52.508;5.502;2023-07-09T06:07:44;27.00;62.30
78788;DHT22;68131;52.508;5.502;2023-07-09T06:10:14;27.20;62.10
78788;DHT22;68131;52.508;5.502;2023-07-09T06:12:46;27.50;61.90
78788;DHT22;68131;52.508;5.502;2023-07-09T06:15:15;27.70;61.60
78788;DHT22;68131;52.508;5.502;2023-07-09T06:17:45;27.80;61.10
78788;DHT22;68131;52.508;5.502;2023-07-09T06:20:15;28.00;61.10
78788;DHT22;68131;52.508;5.502;2023-07-09T06:22:44;28.00;60.60
78788;DHT22;68131;52.508;5.502;2023-07-09T06:25:13;28.00;60.50
78788;DHT22;68131;52.508;5.502;2023-07-09T06:27:42;27.90;60.50
78788;DHT22;68131;52.508;5.502;2023-07-09T06:30:14;27.90;60.60
78788;DHT22;68131;52.508;5.502;2023-07-09T06:32:45;27.90;60.60
78788;DHT22;68131;52.508;5.502;2023-07-09T06:35:15;27.90;60.50
78788;DHT22;68131;52.508;5.502;2023-07-09T06:37:47;28.00;60.50
78788;DHT22;68131;52.508;5.502;2023-07-09T06:40:16;28.10;60.20
78788;DHT22;68131;52.508;5.502;2023-07-09T06:42:45;28.30;60.00
78788;DHT22;68131;52.508;5.502;2023-07-09T06:45:28;28.60;59.60
78788;DHT22;68131;52.508;5.502;2023-07-09T06:48:00;29.00;59.40
78788;DHT22;68131;52.508;5.502;2023-07-09T06:50:32;29.10;59.10
78788;DHT22;68131;52.508;5.502;2023-07-09T06:53:02;29.10;59.10
78788;DHT22;68131;52.508;5.502;2023-07-09T06:55:31;29.10;59.30
78788;DHT22;68131;52.508;5.502;2023-07-09T06:58:00;29.20;59.40
78788;DHT22;68131;52.508;5.502;2023-07-09T07:00:33;29.40;59.30
78788;DHT22;68131;52.508;5.502;2023-07-09T07:03:03;29.60;58.90
78788;DHT22;68131;52.508;5.502;2023-07-09T07:05:33;29.80;58.70
78788;DHT22;68131;52.508;5.502;2023-07-09T07:08:03;30.00;58.40
78788;DHT22;68131;52.508;5.502;2023-07-09T07:10:32;30.10;58.10
78788;DHT22;68131;52.508;5.502;2023-07-09T07:13:04;30.20;57.70
78788;DHT22;68131;52.508;5.502;2023-07-09T07:15:37;30.10;57.40
78788;DHT22;68131;52.508;5.502;2023-07-09T07:18:07;30.10;57.70
78788;DHT22;68131;52.508;5.502;2023-07-09T07:20:36;30.20;57.60
78788;DHT22;68131;52.508;5.502;2023-07-09T07:23:05;30.40;57.50
78788;DHT22;68131;52.508;5.502;2023-07-09T07:25:34;30.70;57.30
78788;DHT22;68131;52.508;5.502;2023-07-09T07:28:06;30.90;56.90
78788;DHT22;68131;52.508;5.502;2023-07-09T07:30:37;31.20;56.60
78788;DHT22;68131;52.508;5.502;2023-07-09T07:33:07;31.40;55.50
78788;DHT22;68131;52.508;5.502;2023-07-09T07:35:38;31.50;55.10
78788;DHT22;68131;52.508;5.502;2023-07-09T07:38:08;31.70;54.80
78788;DHT22;68131;52.508;5.502;2023-07-09T07:40:37;31.90;54.70
78788;DHT22;68131;52.508;5.502;2023-07-09T07:43:08;32.10;54.20
78788;DHT22;68131;52.508;5.502;2023-07-09T07:45:43;32.00;54.00
78788;DHT22;68131;52.508;5.502;2023-07-09T07:48:12;31.90;53.70
78788;DHT22;68131;52.508;5.502;2023-07-09T07:50:41;31.80;53.80
78788;DHT22;68131;52.508;5.502;2023-07-09T07:53:12;31.80;53.60
78788;DHT22;68131;52.508;5.502;2023-07-09T07:55:43;31.80;53.90
78788;DHT22;68131;52.508;5.502;2023-07-09T07:58:13;31.80;53.60
78788;DHT22;68131;52.508;5.502;2023-07-09T08:00:46;31.70;53.80
78788;DHT22;68131;52.508;5.502;2023-07-09T08:03:15;31.70;53.60
78788;DHT22;68131;52.508;5.502;2023-07-09T08:05:48;31.70;53.70
78788;DHT22;68131;52.508;5.502;2023-07-09T08:08:17;31.90;53.50
78788;DHT22;68131;52.508;5.502;2023-07-09T08:10:48;32.00;53.60
78788;DHT22;68131;52.508;5.502;2023-07-09T08:13:18;32.10;53.70
78788;DHT22;68131;52.508;5.502;2023-07-09T08:15:51;32.20;53.70
78788;DHT22;68131;52.508;5.502;2023-07-09T08:18:20;32.20;53.50
78788;DHT22;68131;52.508;5.502;2023-07-09T08:20:49;32.30;53.40
78788;DHT22;68131;52.508;5.502;2023-07-09T08:23:19;32.40;53.40
78788;DHT22;68131;52.508;5.502;2023-07-09T08:25:53;32.00;53.20
78788;DHT22;68131;52.508;5.502;2023-07-09T08:28:23;31.70;54.00
78788;DHT22;68131;52.508;5.502;2023-07-09T08:30:57;31.60;54.20
78788;DHT22;68131;52.508;5.502;2023-07-09T08:33:29;31.50;54.30
78788;DHT22;68131;52.508;5.502;2023-07-09T08:35:58;31.50;54.40
78788;DHT22;68131;52.508;5.502;2023-07-09T08:38:29;31.40;54.60
78788;DHT22;68131;52.508;5.502;2023-07-09T08:41:07;31.20;54.90
78788;DHT22;68131;52.508;5.502;2023-07-09T08:43:48;30.90;54.50
78788;DHT22;68131;52.508;5.502;2023-07-09T08:46:53;30.50;53.90
78788;DHT22;68131;52.508;5.502;2023-07-09T08:49:35;30.40;54.50
78788;DHT22;68131;52.508;5.502;2023-07-09T08:52:20;30.30;53.70
78788;DHT22;68131;52.508;5.502;2023-07-09T08:54:58;30.30;53.10
78788;DHT22;68131;52.508;5.502;2023-07-09T08:57:33;30.20;52.20
78788;DHT22;68131;52.508;5.502;2023-07-09T09:00:11;30.10;52.30
78788;DHT22;68131;52.508;5.502;2023-07-09T09:02:50;30.00;52.20
78788;DHT22;68131;52.508;5.502;2023-07-09T09:05:21;29.80;52.00
78788;DHT22;68131;52.508;5.502;2023-07-09T09:07:57;29.50;52.70
78788;DHT22;68131;52.508;5.502;2023-07-09T09:10:35;29.30;52.90
78788;DHT22;68131;52.508;5.502;2023-07-09T09:13:11;29.30;53.20
78788;DHT22;68131;52.508;5.502;2023-07-09T09:15:43;29.40;53.10
78788;DHT22;68131;52.508;5.502;2023-07-09T09:18:24;29.40;53.10
78788;DHT22;68131;52.508;5.502;2023-07-09T09:20:58;29.50;52.90
78788;DHT22;68131;52.508;5.502;2023-07-09T09:23:39;29.70;52.80
78788;DHT22;68131;52.508;5.502;2023-07-09T09:26:18;29.80;52.60
78788;DHT22;68131;52.508;5.502;2023-07-09T09:28:49;29.80;52.40
78788;DHT22;68131;52.508;5.502;2023-07-09T09:31:19;29.60;52.60
78788;DHT22;68131;52.508;5.502;2023-07-09T09:33:51;29.40;53.30
78788;DHT22;68131;52.508;5.502;2023-07-09T09:36:22;29.20;53.50
78788;DHT22;68131;52.508;5.502;2023-07-09T09:38:51;29.10;53.80
78788;DHT22;68131;52.508;5.502;2023-07-09T09:41:23;29.10;53.80
78788;DHT22;68131;52.508;5.502;2023-07-09T09:43:53;29.30;53.40
78788;DHT22;68131;52.508;5.502;2023-07-09T09:46:26;29.40;53.60
78788;DHT22;68131;52.508;5.502;2023-07-09T09:49:00;29.40;53.10
78788;DHT22;68131;52.508;5.502;2023-07-09T09:51:30;29.40;53.60
78788;DHT22;68131;52.508;5.502;2023-07-09T09:54:01;29.40;53.00
78788;DHT22;68131;52.508;5.502;2023-07-09T09:56:34;29.50;53.20
78788;DHT22;68131;52.508;5.502;2023-07-09T09:59:04;29.40;53.40
78788;DHT22;68131;52.508;5.502;2023-07-09T10:01:35;29.60;53.60
78788;DHT22;68131;52.508;5.502;2023-07-09T10:04:12;29.50;53.10
78788;DHT22;68131;52.508;5.502;2023-07-09T10:06:48;29.60;53.70
78788;DHT22;68131;52.508;5.502;2023-07-09T10:09:27;29.50;54.10
78788;DHT22;68131;52.508;5.502;2023-07-09T10:12:08;29.60;54.00
78788;DHT22;68131;52.508;5.502;2023-07-09T10:14:49;29.60;53.90
78788;DHT22;68131;52.508;5.502;2023-07-09T10:17:23;29.50;53.90
78788;DHT22;68131;52.508;5.502;2023-07-09T10:20:02;29.40;54.00
78788;DHT22;68131;52.508;5.502;2023-07-09T10:22:40;29.40;54.00
78788;DHT22;68131;52.508;5.502;2023-07-09T10:25:20;29.40;54.30
78788;DHT22;68131;52.508;5.502;2023-07-09T10:28:01;29.50;53.70
78788;DHT22;68131;52.508;5.502;2023-07-09T10:30:43;29.40;54.20
78788;DHT22;68131;52.508;5.502;2023-07-09T10:33:22;29.50;54.70
78788;DHT22;68131;52.508;5.502;2023-07-09T10:36:06;29.60;54.50
78788;DHT22;68131;52.508;5.502;2023-07-09T10:38:44;29.70;55.00
78788;DHT22;68131;52.508;5.502;2023-07-09T10:41:16;29.80;55.00
78788;DHT22;68131;52.508;5.502;2023-07-09T10:43:52;29.80;55.30
78788;DHT22;68131;52.508;5.502;2023-07-09T10:46:25;29.90;55.40
78788;DHT22;68131;52.508;5.502;2023-07-09T10:48:56;30.00;55.40
78788;DHT22;68131;52.508;5.502;2023-07-09T10:51:30;30.10;55.30
78788;DHT22;68131;52.508;5.502;2023-07-09T10:54:04;30.10;55.50
78788;DHT22;68131;52.508;5.502;2023-07-09T10:56:37;30.20;55.50
78788;DHT22;68131;52.508;5.502;2023-07-09T10:59:18;30.30;55.70
78788;DHT22;68131;52.508;5.502;2023-07-09T11:01:51;30.60;55.50
78788;DHT22;68131;52.508;5.502;2023-07-09T11:04:29;30.80;55.40
78788;DHT22;68131;52.508;5.502;2023-07-09T11:07:06;31.00;55.00
78788;DHT22;68131;52.508;5.502;2023-07-09T11:09:41;31.00;54.90
78788;DHT22;68131;52.508;5.502;2023-07-09T11:12:14;31.10;54.60
78788;DHT22;68131;52.508;5.502;2023-07-09T11:14:47;31.10;54.70
78788;DHT22;68131;52.508;5.502;2023-07-09T11:17:20;31.20;54.70
78788;DHT22;68131;52.508;5.502;2023-07-09T11:20:00;31.30;53.90
78788;DHT22;68131;52.508;5.502;2023-07-09T11:22:41;31.50;53.40
78788;DHT22;68131;52.508;5.502;2023-07-09T11:25:12;31.60;52.20
78788;DHT22;68131;52.508;5.502;2023-07-09T11:27:49;31.60;52.00
78788;DHT22;68131;52.508;5.502;2023-07-09T11:30:21;31.60;51.60
78788;DHT22;68131;52.508;5.502;2023-07-09T11:32:57;31.40;51.70
78788;DHT22;68131;52.508;5.502;2023-07-09T11:35:29;31.40;52.10
78788;DHT22;68131;52.508;5.502;2023-07-09T11:38:17;31.40;52.00
78788;DHT22;68131;52.508;5.502;2023-07-09T11:40:48;31.30;52.00
78788;DHT22;68131;52.508;5.502;2023-07-09T11:43:29;31.00;52.30
78788;DHT22;68131;52.508;5.502;2023-07-09T11:46:10;30.70;52.60
78788;DHT22;68131;52.508;5.502;2023-07-09T11:48:41;30.50;53.20
78788;DHT22;68131;52.508;5.502;2023-07-09T11:51:15;30.40;53.20
78788;DHT22;68131;52.508;5.502;2023-07-09T11:53:51;30.30;53.40
78788;DHT22;68131;52.508;5.502;2023-07-09T11:56:24;30.20;53.70
78788;DHT22;68131;52.508;5.502;2023-07-09T11:58:56;30.40;53.80
78788;DHT22;68131;52.508;5.502;2023-07-09T12:01:29;30.60;53.20
78788;DHT22;68131;52.508;5.502;2023-07-09T12:04:03;30.70;52.80
78788;DHT22;68131;52.508;5.502;2023-07-09T12:06:33;30.60;52.90
78788;DHT22;68131;52.508;5.502;2023-07-09T12:09:09;30.60;52.70
78788;DHT22;68131;52.508;5.502;2023-07-09T12:11:45;30.70;52.70
78788;DHT22;68131;52.508;5.502;2023-07-09T12:14:16;30.70;52.70
78788;DHT22;68131;52.508;5.502;2023-07-09T12:16:47;30.70;52.80
78788;DHT22;68131;52.508;5.502;2023-07-09T12:19:19;30.50;53.10
78788;DHT22;68131;52.508;5.502;2023-07-09T12:21:53;30.40;53.60
78788;DHT22;68131;52.508;5.502;2023-07-09T12:24:28;30.30;54.10
78788;DHT22;68131;52.508;5.502;2023-07-09T12:26:59;30.10;54.60
78788;DHT22;68131;52.508;5.502;2023-07-09T12:29:29;29.80;55.10
78788;DHT22;68131;52.508;5.502;2023-07-09T12:32:02;29.90;55.10
78788;DHT22;68131;52.508;5.502;2023-07-09T12:34:32;30.00;54.90
78788;DHT22;68131;52.508;5.502;2023-07-09T12:37:01;29.90;54.90
78788;DHT22;68131;52.508;5.502;2023-07-09T12:39:37;30.00;54.40
78788;DHT22;68131;52.508;5.502;2023-07-09T12:42:14;29.90;54.30
78788;DHT22;68131;52.508;5.502;2023-07-09T12:44:45;29.90;54.20
78788;DHT22;68131;52.508;5.502;2023-07-09T12:47:17;29.90;54.30
78788;DHT22;68131;52.508;5.502;2023-07-09T12:49:46;29.80;54.50
78788;DHT22;68131;52.508;5.502;2023-07-09T12:52:20;29.80;54.50
78788;DHT22;68131;52.508;5.502;2023-07-09T12:54:59;29.90;54.40
78788;DHT22;68131;52.508;5.502;2023-07-09T12:57:29;29.90;54.60
78788;DHT22;68131;52.508;5.502;2023-07-09T13:00:01;29.90;55.20
78788;DHT22;68131;52.508;5.502;2023-07-09T13:02:38;30.00;55.10
78788;DHT22;68131;52.508;5.502;2023-07-09T13:05:19;30.00;55.00
78788;DHT22;68131;52.508;5.502;2023-07-09T13:07:51;30.00;55.10
78788;DHT22;68131;52.508;5.502;2023-07-09T13:10:26;29.90;55.10
78788;DHT22;68131;52.508;5.502;2023-07-09T13:13:02;29.80;55.20
78788;DHT22;68131;52.508;5.502;2023-07-09T13:15:39;29.80;55.40
78788;DHT22;68131;52.508;5.502;2023-07-09T13:18:10;29.90;55.30
78788;DHT22;68131;52.508;5.502;2023-07-09T13:20:42;29.80;55.20
78788;DHT22;68131;52.508;5.502;2023-07-09T13:23:14;29.90;55.50
78788;DHT22;68131;52.508;5.502;2023-07-09T13:25:46;29.90;55.70
78788;DHT22;68131;52.508;5.502;2023-07-09T13:28:17;29.90;56.00
78788;DHT22;68131;52.508;5.502;2023-07-09T13:30:47;29.80;55.60
78788;DHT22;68131;52.508;5.502;2023-07-09T13:33:17;29.70;55.70
78788;DHT22;68131;52.508;5.502;2023-07-09T13:35:47;29.50;55.80
78788;DHT22;68131;52.508;5.502;2023-07-09T13:38:21;29.40;56.20
78788;DHT22;68131;52.508;5.502;2023-07-09T13:40:55;29.30;56.30
78788;DHT22;68131;52.508;5.502;2023-07-09T13:43:29;29.20;56.50
78788;DHT22;68131;52.508;5.502;2023-07-09T13:46:00;29.20;56.60
78788;DHT22;68131;52.508;5.502;2023-07-09T13:48:31;29.10;56.80
78788;DHT22;68131;52.508;5.502;2023-07-09T13:51:01;29.10;57.00
78788;DHT22;68131;52.508;5.502;2023-07-09T13:53:32;29.10;57.10
78788;DHT22;68131;52.508;5.502;2023-07-09T13:56:06;29.20;57.10
78788;DHT22;68131;52.508;5.502;2023-07-09T13:58:36;29.30;57.00
78788;DHT22;68131;52.508;5.502;2023-07-09T14:01:11;29.40;56.80
78788;DHT22;68131;52.508;5.502;2023-07-09T14:03:41;29.40;56.40
78788;DHT22;68131;52.508;5.502;2023-07-09T14:06:12;29.50;56.30
78788;DHT22;68131;52.508;5.502;2023-07-09T14:08:42;29.50;56.40
78788;DHT22;68131;52.508;5.502;2023-07-09T14:11:15;29.30;56.60
78788;DHT22;68131;52.508;5.502;2023-07-09T14:13:48;29.10;56.90
78788;DHT22;68131;52.508;5.502;2023-07-09T14:16:20;29.00;57.10
78788;DHT22;68131;52.508;5.502;2023-07-09T14:18:52;29.00;57.40
78788;DHT22;68131;52.508;5.502;2023-07-09T14:21:24;28.80;57.50
78788;DHT22;68131;52.508;5.502;2023-07-09T14:23:54;28.70;57.70
78788;DHT22;68131;52.508;5.502;2023-07-09T14:26:26;28.60;58.00
78788;DHT22;68131;52.508;5.502;2023-07-09T14:28:55;28.40;58.10
78788;DHT22;68131;52.508;5.502;2023-07-09T14:31:27;28.20;58.30
78788;DHT22;68131;52.508;5.502;2023-07-09T14:34:07;27.90;58.60
78788;DHT22;68131;52.508;5.502;2023-07-09T14:36:42;27.70;58.90
78788;DHT22;68131;52.508;5.502;2023-07-09T14:39:11;27.60;59.20
78788;DHT22;68131;52.508;5.502;2023-07-09T14:41:43;27.50;59.40
78788;DHT22;68131;52.508;5.502;2023-07-09T14:44:21;27.40;59.50
78788;DHT22;68131;52.508;5.502;2023-07-09T14:46:52;27.20;59.70
78788;DHT22;68131;52.508;5.502;2023-07-09T14:49:25;27.00;59.80
78788;DHT22;68131;52.508;5.502;2023-07-09T14:51:55;26.80;60.10
78788;DHT22;68131;52.508;5.502;2023-07-09T14:54:26;26.60;60.40
78788;DHT22;68131;52.508;5.502;2023-07-09T14:56:58;26.30;60.90
78788;DHT22;68131;52.508;5.502;2023-07-09T14:59:27;26.10;61.50
78788;DHT22;68131;52.508;5.502;2023-07-09T15:02:01;25.90;61.60
78788;DHT22;68131;52.508;5.502;2023-07-09T15:04:32;25.90;61.60
78788;DHT22;68131;52.508;5.502;2023-07-09T15:07:02;25.80;61.70
78788;DHT22;68131;52.508;5.502;2023-07-09T15:09:38;25.80;61.70
78788;DHT22;68131;52.508;5.502;2023-07-09T15:12:19;25.90;61.70
78788;DHT22;68131;52.508;5.502;2023-07-09T15:14:57;25.70;62.30
78788;DHT22;68131;52.508;5.502;2023-07-09T15:17:29;25.50;62.40
78788;DHT22;68131;52.508;5.502;2023-07-09T15:19:58;25.40;62.50
78788;DHT22;68131;52.508;5.502;2023-07-09T15:22:30;25.30;63.30
78788;DHT22;68131;52.508;5.502;2023-07-09T15:25:01;25.10;63.50
78788;DHT22;68131;52.508;5.502;2023-07-09T15:27:33;25.00;63.90
78788;DHT22;68131;52.508;5.502;2023-07-09T15:30:10;24.80;64.80
78788;DHT22;68131;52.508;5.502;2023-07-09T15:32:39;24.60;67.10
78788;DHT22;68131;52.508;5.502;2023-07-09T15:35:09;24.50;66.90
78788;DHT22;68131;52.508;5.502;2023-07-09T15:37:39;24.50;68.00
78788;DHT22;68131;52.508;5.502;2023-07-09T15:40:17;24.20;68.80
78788;DHT22;68131;52.508;5.502;2023-07-09T15:42:52;24.00;69.50
78788;DHT22;68131;52.508;5.502;2023-07-09T15:45:21;23.30;70.60
78788;DHT22;68131;52.508;5.502;2023-07-09T15:47:52;22.90;71.70
78788;DHT22;68131;52.508;5.502;2023-07-09T15:50:23;22.80;72.60
78788;DHT22;68131;52.508;5.502;2023-07-09T15:52:53;22.60;73.50
78788;DHT22;68131;52.508;5.502;2023-07-09T15:55:24;22.40;73.60
78788;DHT22;68131;52.508;5.502;2023-07-09T15:57:56;22.50;73.10
78788;DHT22;68131;52.508;5.502;2023-07-09T16:00:27;22.70;72.60
78788;DHT22;68131;52.508;5.502;2023-07-09T16:03:22;22.90;72.40